sensor_id;sensor_type;location;lat;lon;timestamp;temperature;humidity
2100;DHT22;1055;48.854;9.302;2023-08-06T00:00:39;16.00;99.90
2100;DHT22;1055;48.854;9.302;2023-08-06T00:03:05;16.10;99.90
2100;DHT22;1055;48.854;9.302;2023-08-06T00:05:31;16.10;99.90
2100;DHT22;1055;48.854;9.302;2023-08-06T00:07:56;16.30;99.90
2100;DHT22;1055;48.854;9.302;2023-08-06T00:10:22;16.40;99.90
2100;DHT22;1055;48.854;9.302;2023-08-06T00:12:47;16.50;99.90
2100;DHT22;1055;48.854;9.302;2023-08-06T00:15:14;16.30;99.90
2100;DHT22;1055;48.854;9.302;2023-08-06T00:17:39;16.40;99.90
2100;DHT22;1055;48.854;9.302;2023-08-06T00:20:06;16.50;99.90
2100;DHT22;1055;48.854;9.302;2023-08-06T00:22:36;16.60;99.90
2100;DHT22;1055;48.854;9.302;2023-08-06T00:25:02;16.60;99.90
2100;DHT22;1055;48.854;9.302;2023-08-06T00:27:28;16.60;99.90
2100;DHT22;1055;48.854;9.302;2023-08-06T00:29:53;16.70;99.90
2100;DHT22;1055;48.854;9.302;2023-08-06T00:32:19;16.60;99.90
2100;DHT22;1055;48.854;9.302;2023-08-06T00:34:44;16.40;99.90
2100;DHT22;1055;48.854;9.302;2023-08-06T00:37:10;16.60;99.90
2100;DHT22;1055;48.854;9.302;2023-08-06T00:39:36;16.80;99.90
2100;DHT22;1055;48.854;9.302;2023-08-06T00:42:01;16.70;99.90
2100;DHT22;1055;48.854;9.302;2023-08-06T00:44:27;16.70;99.90
2100;DHT22;1055;48.854;9.302;2023-08-06T00:46:52;16.50;99.90
2100;DHT22;1055;48.854;9.302;2023-08-06T00:49:18;16.50;99.90
2100;DHT22;1055;48.854;9.302;2023-08-06T00:51:44;16.50;99.90
2100;DHT22;1055;48.854;9.302;2023-08-06T00:54:10;16.50;99.90
2100;DHT22;1055;48.854;9.302;2023-08-06T00:56:37;16.40;99.90
2100;DHT22;1055;48.854;9.302;2023-08-06T00:59:06;16.20;99.90
2100;DHT22;1055;48.854;9.302;2023-08-06T01:01:32;16.00;99.90
2100;DHT22;1055;48.854;9.302;2023-08-06T01:03:58;15.90;99.90
2100;DHT22;1055;48.854;9.302;2023-08-06T01:06:48;15.90;99.90
2100;DHT22;1055;48.854;9.302;2023-08-06T01:09:31;15.90;99.90
2100;DHT22;1055;48.854;9.302;2023-08-06T01:12:22;15.70;99.90
2100;DHT22;1055;48.854;9.302;2023-08-06T01:15:00;15.90;99.90
2100;DHT22;1055;48.854;9.302;2023-08-06T01:17:28;15.70;99.90
2100;DHT22;1055;48.854;9.302;2023-08-06T01:19:55;16.00;99.90
2100;DHT22;1055;48.854;9.302;2023-08-06T01:22:20;15.80;99.90
2100;DHT22;1055;48.854;9.302;2023-08-06T01:24:48;16.00;99.90
2100;DHT22;1055;48.854;9.302;2023-08-06T01:27:26;16.00;99.90
2100;DHT22;1055;48.854;9.302;2023-08-06T01:30:19;15.90;99.90
2100;DHT22;1055;48.854;9.302;2023-08-06T01:32:49;15.80;99.90
2100;DHT22;1055;48.854;9.302;2023-08-06T01:35:17;15.40;99.90
2100;DHT22;1055;48.854;9.302;2023-08-06T01:37:44;15.20;99.90
2100;DHT22;1055;48.854;9.302;2023-08-06T01:40:11;15.10;99.90
2100;DHT22;1055;48.854;9.302;2023-08-06T01:42:40;15.10;99.90
2100;DHT22;1055;48.854;9.302;2023-08-06T01:45:07;14.90;99.90
2100;DHT22;1055;48.854;9.302;2023-08-06T01:47:33;15.00;99.90
2100;DHT22;1055;48.854;9.302;2023-08-06T01:49:59;14.90;99.90
2100;DHT22;1055;48.854;9.302;2023-08-06T01:52:24;15.00;99.90
2100;DHT22;1055;48.854;9.302;2023-08-06T01:54:50;15.10;99.90
2100;DHT22;1055;48.854;9.302;2023-08-06T01:57:15;15.00;99.90
2100;DHT22;1055;48.854;9.302;2023-08-06T01:59:41;14.70;99.90
2100;DHT22;1055;48.854;9.302;2023-08-06T02:02:07;15.10;99.90
2100;DHT22;1055;48.854;9.302;2023-08-06T02:04:32;15.10;99.90
2100;DHT22;1055;48.854;9.302;2023-08-06T02:06:58;15.10;99.90
2100;DHT22;1055;48.854;9.302;2023-08-06T02:09:23;15.10;99.90
2100;DHT22;1055;48.854;9.302;2023-08-06T02:11:49;15.10;99.90
2100;DHT22;1055;48.854;9.302;2023-08-06T02:14:14;15.20;99.90
2100;DHT22;1055;48.854;9.302;2023-08-06T02:16:40;15.20;99.90
2100;DHT22;1055;48.854;9.302;2023-08-06T02:19:06;14.90;99.90
2100;DHT22;1055;48.854;9.302;2023-08-06T02:21:31;15.10;99.90
2100;DHT22;1055;48.854;9.302;2023-08-06T02:23:57;15.00;99.90
2100;DHT22;1055;48.854;9.302;2023-08-06T02:26:23;14.90;99.90
2100;DHT22;1055;48.854;9.302;2023-08-06T02:28:48;15.10;99.90
2100;DHT22;1055;48.854;9.302;2023-08-06T02:31:14;15.30;99.90
2100;DHT22;1055;48.854;9.302;2023-08-06T02:33:39;15.60;99.90
2100;DHT22;1055;48.854;9.302;2023-08-06T02:36:05;15.30;99.90
2100;DHT22;1055;48.854;9.302;2023-08-06T02:38:32;15.40;99.90
2100;DHT22;1055;48.854;9.302;2023-08-06T02:40:58;15.20;99.90
2100;DHT22;1055;48.854;9.302;2023-08-06T02:43:23;15.10;99.90
2100;DHT22;1055;48.854;9.302;2023-08-06T02:45:49;15.20;99.90
2100;DHT22;1055;48.854;9.302;2023-08-06T02:48:14;15.30;99.90
2100;DHT22;1055;48.854;9.302;2023-08-06T02:50:41;15.10;99.90
2100;DHT22;1055;48.854;9.302;2023-08-06T02:53:07;15.00;99.90
2100;DHT22;1055;48.854;9.302;2023-08-06T02:55:34;14.90;99.90
2100;DHT22;1055;48.854;9.302;2023-08-06T02:58:01;14.90;99.90
2100;DHT22;1055;48.854;9.302;2023-08-06T03:00:27;14.90;99.90
2100;DHT22;1055;48.854;9.302;2023-08-06T03:02:53;15.00;99.90
2100;DHT22;1055;48.854;9.302;2023-08-06T03:05:18;14.90;99.90
2100;DHT22;1055;48.854;9.302;2023-08-06T03:07:44;14.90;99.90
2100;DHT22;1055;48.854;9.302;2023-08-06T03:10:10;15.10;99.90
2100;DHT22;1055;48.854;9.302;2023-08-06T03:12:35;15.10;99.90
2100;DHT22;1055;48.854;9.302;2023-08-06T03:15:01;15.10;99.90
2100;DHT22;1055;48.854;9.302;2023-08-06T03:17:26;15.20;99.90
2100;DHT22;1055;48.854;9.302;2023-08-06T03:19:52;15.30;99.90
2100;DHT22;1055;48.854;9.302;2023-08-06T03:22:18;15.40;99.90
2100;DHT22;1055;48.854;9.302;2023-08-06T03:24:43;15.20;99.90
2100;DHT22;1055;48.854;9.302;2023-08-06T03:27:09;15.40;99.90
2100;DHT22;1055;48.854;9.302;2023-08-06T03:29:34;15.30;99.90
2100;DHT22;1055;48.854;9.302;2023-08-06T03:32:00;15.20;99.90
2100;DHT22;1055;48.854;9.302;2023-08-06T03:34:26;15.30;99.90
2100;DHT22;1055;48.854;9.302;2023-08-06T03:36:51;15.30;99.90
2100;DHT22;1055;48.854;9.302;2023-08-06T03:39:17;15.20;99.90
2100;DHT22;1055;48.854;9.302;2023-08-06T03:41:42;15.20;99.90
2100;DHT22;1055;48.854;9.302;2023-08-06T03:44:08;15.00;99.90
2100;DHT22;1055;48.854;9.302;2023-08-06T03:46:33;15.00;99.90
2100;DHT22;1055;48.854;9.302;2023-08-06T03:49:00;15.00;99.90
2100;DHT22;1055;48.854;9.302;2023-08-06T03:51:26;14.80;99.90
2100;DHT22;1055;48.854;9.302;2023-08-06T03:53:51;14.90;99.90
2100;DHT22;1055;48.854;9.302;2023-08-06T03:56:17;14.90;99.90
2100;DHT22;1055;48.854;9.302;2023-08-06T03:58:42;15.00;99.90
2100;DHT22;1055;48.854;9.302;2023-08-06T04:01:08;15.20;99.90
2100;DHT22;1055;48.854;9.302;2023-08-06T04:03:34;15.20;99.90
2100;DHT22;1055;48.854;9.302;2023-08-06T04:05:59;15.30;99.90
2100;DHT22;1055;48.854;9.302;2023-08-06T04:08:26;15.40;99.90
2100;DHT22;1055;48.854;9.302;2023-08-06T04:10:52;15.10;99.90
2100;DHT22;1055;48.854;9.302;2023-08-06T04:13:18;15.10;99.90
2100;DHT22;1055;48.854;9.302;2023-08-06T04:15:44;14.80;99.90
2100;DHT22;1055;48.854;9.302;2023-08-06T04:18:10;14.60;99.90
2100;DHT22;1055;48.854;9.302;2023-08-06T04:20:45;14.40;99.90
2100;DHT22;1055;48.854;9.302;2023-08-06T04:23:11;14.30;99.90
2100;DHT22;1055;48.854;9.302;2023-08-06T04:25:37;14.30;99.90
2100;DHT22;1055;48.854;9.302;2023-08-06T04:28:03;14.20;99.90
2100;DHT22;1055;48.854;9.302;2023-08-06T04:30:28;14.10;99.90
2100;DHT22;1055;48.854;9.302;2023-08-06T04:32:56;14.40;99.90
2100;DHT22;1055;48.854;9.302;2023-08-06T04:35:21;14.30;99.90
2100;DHT22;1055;48.854;9.302;2023-08-06T04:37:47;14.10;99.90
2100;DHT22;1055;48.854;9.302;2023-08-06T04:40:12;14.10;99.90
2100;DHT22;1055;48.854;9.302;2023-08-06T04:42:38;14.10;99.90
2100;DHT22;1055;48.854;9.302;2023-08-06T04:45:04;14.10;99.90
2100;DHT22;1055;48.854;9.302;2023-08-06T04:47:30;14.20;99.90
2100;DHT22;1055;48.854;9.302;2023-08-06T04:49:55;14.20;99.90
2100;DHT22;1055;48.854;9.302;2023-08-06T04:52:21;14.30;99.90
2100;DHT22;1055;48.854;9.302;2023-08-06T04:54:47;14.50;99.90
2100;DHT22;1055;48.854;9.302;2023-08-06T04:57:12;14.80;99.90
2100;DHT22;1055;48.854;9.302;2023-08-06T04:59:39;14.70;99.90
2100;DHT22;1055;48.854;9.302;2023-08-06T05:02:04;14.80;99.90
2100;DHT22;1055;48.854;9.302;2023-08-06T05:04:30;15.00;99.90
2100;DHT22;1055;48.854;9.302;2023-08-06T05:06:56;14.90;99.90
2100;DHT22;1055;48.854;9.302;2023-08-06T05:09:21;15.00;99.90
2100;DHT22;1055;48.854;9.302;2023-08-06T05:11:47;15.00;99.90
2100;DHT22;1055;48.854;9.302;2023-08-06T05:14:13;14.90;99.90
2100;DHT22;1055;48.854;9.302;2023-08-06T05:16:39;14.90;99.90
2100;DHT22;1055;48.854;9.302;2023-08-06T05:19:04;14.90;99.90
2100;DHT22;1055;48.854;9.302;2023-08-06T05:21:30;15.10;99.90
2100;DHT22;1055;48.854;9.302;2023-08-06T05:23:56;15.30;99.90
2100;DHT22;1055;48.854;9.302;2023-08-06T05:26:21;15.40;99.90
2100;DHT22;1055;48.854;9.302;2023-08-06T05:28:47;15.30;99.90
2100;DHT22;1055;48.854;9.302;2023-08-06T05:31:12;15.20;99.90
2100;DHT22;1055;48.854;9.302;2023-08-06T05:33:38;15.20;99.90
2100;DHT22;1055;48.854;9.302;2023-08-06T05:36:04;15.20;99.90
2100;DHT22;1055;48.854;9.302;2023-08-06T05:38:30;15.20;99.90
2100;DHT22;1055;48.854;9.302;2023-08-06T05:40:56;15.20;99.90
2100;DHT22;1055;48.854;9.302;2023-08-06T05:43:22;15.00;99.90
2100;DHT22;1055;48.854;9.302;2023-08-06T05:45:49;15.00;99.90
2100;DHT22;1055;48.854;9.302;2023-08-06T05:48:15;15.10;99.90
2100;DHT22;1055;48.854;9.302;2023-08-06T05:50:41;15.20;99.90
2100;DHT22;1055;48.854;9.302;2023-08-06T05:53:07;15.10;99.90
2100;DHT22;1055;48.854;9.302;2023-08-06T05:55:33;15.30;99.90
2100;DHT22;1055;48.854;9.302;2023-08-06T05:57:59;15.20;99.90
2100;DHT22;1055;48.854;9.302;2023-08-06T06:00:25;15.40;99.90
2100;DHT22;1055;48.854;9.302;2023-08-06T06:02:51;15.40;99.90
2100;DHT22;1055;48.854;9.302;2023-08-06T06:05:16;15.40;99.90
2100;DHT22;1055;48.854;9.302;2023-08-06T06:07:42;15.40;99.90
2100;DHT22;1055;48.854;9.302;2023-08-06T06:10:08;15.30;99.90
2100;DHT22;1055;48.854;9.302;2023-08-06T06:12:34;15.30;99.90
2100;DHT22;1055;48.854;9.302;2023-08-06T06:14:59;15.40;99.90
2100;DHT22;1055;48.854;9.302;2023-08-06T06:17:29;15.30;99.90
2100;DHT22;1055;48.854;9.302;2023-08-06T06:19:55;15.40;99.90
2100;DHT22;1055;48.854;9.302;2023-08-06T06:22:20;15.40;99.90
2100;DHT22;1055;48.854;9.302;2023-08-06T06:24:46;15.50;99.90
2100;DHT22;1055;48.854;9.302;2023-08-06T06:27:12;15.50;99.90
2100;DHT22;1055;48.854;9.302;2023-08-06T06:29:39;15.50;99.90
2100;DHT22;1055;48.854;9.302;2023-08-06T06:32:04;15.60;99.90
2100;DHT22;1055;48.854;9.302;2023-08-06T06:34:30;15.60;99.90
2100;DHT22;1055;48.854;9.302;2023-08-06T06:36:56;15.40;99.90
2100;DHT22;1055;48.854;9.302;2023-08-06T06:39:21;15.20;99.90
2100;DHT22;1055;48.854;9.302;2023-08-06T06:41:47;15.00;99.90
2100;DHT22;1055;48.854;9.302;2023-08-06T06:44:13;15.00;99.90
2100;DHT22;1055;48.854;9.302;2023-08-06T06:46:40;14.90;99.90
2100;DHT22;1055;48.854;9.302;2023-08-06T06:49:06;14.90;99.90
2100;DHT22;1055;48.854;9.302;2023-08-06T06:51:31;14.90;99.90
2100;DHT22;1055;48.854;9.302;2023-08-06T06:53:57;14.90;99.90
2100;DHT22;1055;48.854;9.302;2023-08-06T06:56:23;15.00;99.90
2100;DHT22;1055;48.854;9.302;2023-08-06T06:58:48;15.00;99.90
2100;DHT22;1055;48.854;9.302;2023-08-06T07:01:14;14.90;99.90
2100;DHT22;1055;48.854;9.302;2023-08-06T07:03:40;14.90;99.90
2100;DHT22;1055;48.854;9.302;2023-08-06T07:06:06;14.90;99.90
2100;DHT22;1055;48.854;9.302;2023-08-06T07:08:32;14.90;99.90
2100;DHT22;1055;48.854;9.302;2023-08-06T07:11:02;14.90;99.90
2100;DHT22;1055;48.854;9.302;2023-08-06T07:13:29;15.00;99.90
2100;DHT22;1055;48.854;9.302;2023-08-06T07:15:55;15.00;99.90
2100;DHT22;1055;48.854;9.302;2023-08-06T07:18:21;15.00;99.90
2100;DHT22;1055;48.854;9.302;2023-08-06T07:20:50;15.20;99.90
2100;DHT22;1055;48.854;9.302;2023-08-06T07:23:16;15.10;99.90
2100;DHT22;1055;48.854;9.302;2023-08-06T07:25:42;15.20;99.90
2100;DHT22;1055;48.854;9.302;2023-08-06T07:28:09;15.10;99.90
2100;DHT22;1055;48.854;9.302;2023-08-06T07:30:38;15.10;99.90
2100;DHT22;1055;48.854;9.302;2023-08-06T07:33:04;15.10;99.90
2100;DHT22;1055;48.854;9.302;2023-08-06T07:35:29;15.10;99.90
2100;DHT22;1055;48.854;9.302;2023-08-06T07:37:55;15.00;99.90
2100;DHT22;1055;48.854;9.302;2023-08-06T07:40:21;14.90;99.90
2100;DHT22;1055;48.854;9.302;2023-08-06T07:42:46;15.00;99.90
2100;DHT22;1055;48.854;9.302;2023-08-06T07:45:12;14.80;99.90
2100;DHT22;1055;48.854;9.302;2023-08-06T07:47:38;14.90;99.90
2100;DHT22;1055;48.854;9.302;2023-08-06T07:50:04;14.80;99.90
2100;DHT22;1055;48.854;9.302;2023-08-06T07:52:29;14.90;99.90
2100;DHT22;1055;48.854;9.302;2023-08-06T07:54:55;14.80;99.90
2100;DHT22;1055;48.854;9.302;2023-08-06T07:57:21;14.80;99.90
2100;DHT22;1055;48.854;9.302;2023-08-06T07:59:46;14.80;99.90
2100;DHT22;1055;48.854;9.302;2023-08-06T08:02:12;14.90;99.90
2100;DHT22;1055;48.854;9.302;2023-08-06T08:04:37;14.90;99.90
2100;DHT22;1055;48.854;9.302;2023-08-06T08:07:03;14.90;99.90
2100;DHT22;1055;48.854;9.302;2023-08-06T08:09:29;15.00;99.90
2100;DHT22;1055;48.854;9.302;2023-08-06T08:11:54;15.00;99.90
2100;DHT22;1055;48.854;9.302;2023-08-06T08:14:20;15.00;99.90
2100;DHT22;1055;48.854;9.302;2023-08-06T08:16:46;15.10;99.90
2100;DHT22;1055;48.854;9.302;2023-08-06T08:19:11;15.20;99.90
2100;DHT22;1055;48.854;9.302;2023-08-06T08:21:38;15.30;99.90
2100;DHT22;1055;48.854;9.302;2023-08-06T08:24:06;15.40;99.90
2100;DHT22;1055;48.854;9.302;2023-08-06T08:26:31;15.50;99.90
2100;DHT22;1055;48.854;9.302;2023-08-06T08:28:57;15.60;99.90
2100;DHT22;1055;48.854;9.302;2023-08-06T08:31:23;15.50;99.90
2100;DHT22;1055;48.854;9.302;2023-08-06T08:33:48;15.70;99.90
2100;DHT22;1055;48.854;9.302;2023-08-06T08:36:14;15.90;99.90
2100;DHT22;1055;48.854;9.302;2023-08-06T08:38:39;16.00;99.90
2100;DHT22;1055;48.854;9.302;2023-08-06T08:41:05;16.10;99.90
2100;DHT22;1055;48.854;9.302;2023-08-06T08:43:32;16.00;99.90
2100;DHT22;1055;48.854;9.302;2023-08-06T08:45:58;16.10;99.90
2100;DHT22;1055;48.854;9.302;2023-08-06T08:48:26;16.10;99.90
2100;DHT22;1055;48.854;9.302;2023-08-06T08:50:53;16.00;99.90
2100;DHT22;1055;48.854;9.302;2023-08-06T08:53:21;16.00;99.90
2100;DHT22;1055;48.854;9.302;2023-08-06T08:55:48;16.10;99.90
2100;DHT22;1055;48.854;9.302;2023-08-06T08:58:15;16.20;99.90
2100;DHT22;1055;48.854;9.302;2023-08-06T09:00:42;16.20;99.90
2100;DHT22;1055;48.854;9.302;2023-08-06T09:03:08;16.20;99.90
2100;DHT22;1055;48.854;9.302;2023-08-06T09:05:34;16.10;99.90
2100;DHT22;1055;48.854;9.302;2023-08-06T09:08:03;16.20;99.90
2100;DHT22;1055;48.854;9.302;2023-08-06T09:10:29;16.10;99.90
2100;DHT22;1055;48.854;9.302;2023-08-06T09:12:56;15.90;99.90
2100;DHT22;1055;48.854;9.302;2023-08-06T09:15:26;15.80;99.90
2100;DHT22;1055;48.854;9.302;2023-08-06T09:17:55;15.70;99.90
2100;DHT22;1055;48.854;9.302;2023-08-06T09:20:20;15.60;99.90
2100;DHT22;1055;48.854;9.302;2023-08-06T09:22:46;15.50;99.90
2100;DHT22;1055;48.854;9.302;2023-08-06T09:25:24;15.40;99.90
2100;DHT22;1055;48.854;9.302;2023-08-06T09:27:51;15.30;99.90
2100;DHT22;1055;48.854;9.302;2023-08-06T09:30:31;15.20;99.90
2100;DHT22;1055;48.854;9.302;2023-08-06T09:32:57;15.40;99.90
2100;DHT22;1055;48.854;9.302;2023-08-06T09:35:23;15.50;99.90
2100;DHT22;1055;48.854;9.302;2023-08-06T09:37:48;15.60;99.90
2100;DHT22;1055;48.854;9.302;2023-08-06T09:40:28;15.70;99.90
2100;DHT22;1055;48.854;9.302;2023-08-06T09:42:54;15.70;99.90
2100;DHT22;1055;48.854;9.302;2023-08-06T09:45:20;15.70;99.90
2100;DHT22;1055;48.854;9.302;2023-08-06T09:47:48;15.70;99.90
2100;DHT22;1055;48.854;9.302;2023-08-06T09:50:21;15.70;99.90
2100;DHT22;1055;48.854;9.302;2023-08-06T09:52:47;15.70;99.90
2100;DHT22;1055;48.854;9.302;2023-08-06T09:55:14;15.60;99.90
2100;DHT22;1055;48.854;9.302;2023-08-06T09:57:41;15.60;99.90
2100;DHT22;1055;48.854;9.302;2023-08-06T10:00:10;15.60;99.90
2100;DHT22;1055;48.854;9.302;2023-08-06T10:02:40;15.60;99.90
2100;DHT22;1055;48.854;9.302;2023-08-06T10:05:06;15.70;99.90
2100;DHT22;1055;48.854;9.302;2023-08-06T10:07:33;15.60;99.90
2100;DHT22;1055;48.854;9.302;2023-08-06T10:10:00;15.60;99.90
2100;DHT22;1055;48.854;9.302;2023-08-06T10:12:29;15.60;99.90
2100;DHT22;1055;48.854;9.302;2023-08-06T10:14:58;15.40;99.90
2100;DHT22;1055;48.854;9.302;2023-08-06T10:17:25;15.40;99.90
2100;DHT22;1055;48.854;9.302;2023-08-06T10:19:51;15.40;99.90
2100;DHT22;1055;48.854;9.302;2023-08-06T10:22:20;15.40;99.90
2100;DHT22;1055;48.854;9.302;2023-08-06T10:24:57;15.40;99.90
2100;DHT22;1055;48.854;9.302;2023-08-06T10:27:52;15.40;99.90
2100;DHT22;1055;48.854;9.302;2023-08-06T10:30:28;15.40;99.90
2100;DHT22;1055;48.854;9.302;2023-08-06T10:32:56;15.60;99.90
2100;DHT22;1055;48.854;9.302;2023-08-06T10:35:47;15.60;99.90
2100;DHT22;1055;48.854;9.302;2023-08-06T10:41:02;15.70;99.90
2100;DHT22;1055;48.854;9.302;2023-08-06T10:43:32;15.60;99.90
2100;DHT22;1055;48.854;9.302;2023-08-06T10:45:59;15.60;99.90
2100;DHT22;1055;48.854;9.302;2023-08-06T10:48:38;15.60;99.90
2100;DHT22;1055;48.854;9.302;2023-08-06T10:51:09;15.60;99.90
2100;DHT22;1055;48.854;9.302;2023-08-06T10:53:34;15.60;99.90
2100;DHT22;1055;48.854;9.302;2023-08-06T10:56:18;15.70;99.90
2100;DHT22;1055;48.854;9.302;2023-08-06T10:58:46;15.70;99.90
2100;DHT22;1055;48.854;9.302;2023-08-06T11:01:13;15.80;99.90
2100;DHT22;1055;48.854;9.302;2023-08-06T11:03:39;15.80;99.90
2100;DHT22;1055;48.854;9.302;2023-08-06T11:06:09;15.80;99.90
2100;DHT22;1055;48.854;9.302;2023-08-06T11:08:36;15.70;99.90
2100;DHT22;1055;48.854;9.302;2023-08-06T11:11:13;15.70;99.90
2100;DHT22;1055;48.854;9.302;2023-08-06T11:13:40;15.40;99.90
2100;DHT22;1055;48.854;9.302;2023-08-06T11:16:06;15.20;99.90
2100;DHT22;1055;48.854;9.302;2023-08-06T11:18:32;15.00;99.90
2100;DHT22;1055;48.854;9.302;2023-08-06T11:20:59;15.00;99.90
2100;DHT22;1055;48.854;9.302;2023-08-06T11:23:29;14.90;99.90
2100;DHT22;1055;48.854;9.302;2023-08-06T11:25:56;14.80;99.90
2100;DHT22;1055;48.854;9.302;2023-08-06T11:28:22;14.90;99.90
2100;DHT22;1055;48.854;9.302;2023-08-06T11:30:49;14.90;99.90
2100;DHT22;1055;48.854;9.302;2023-08-06T11:33:20;14.90;99.90
2100;DHT22;1055;48.854;9.302;2023-08-06T11:35:48;14.90;99.90
2100;DHT22;1055;48.854;9.302;2023-08-06T11:38:14;15.00;99.90
2100;DHT22;1055;48.854;9.302;2023-08-06T11:40:39;14.90;99.90
2100;DHT22;1055;48.854;9.302;2023-08-06T11:43:06;14.90;99.90
2100;DHT22;1055;48.854;9.302;2023-08-06T11:45:35;14.90;99.90
2100;DHT22;1055;48.854;9.302;2023-08-06T11:48:00;15.10;99.90
2100;DHT22;1055;48.854;9.302;2023-08-06T11:50:27;14.90;99.90
2100;DHT22;1055;48.854;9.302;2023-08-06T11:52:57;14.90;99.90
2100;DHT22;1055;48.854;9.302;2023-08-06T11:55:24;14.90;99.90
2100;DHT22;1055;48.854;9.302;2023-08-06T11:57:50;14.90;99.90
2100;DHT22;1055;48.854;9.302;2023-08-06T12:00:16;14.90;99.90
2100;DHT22;1055;48.854;9.302;2023-08-06T12:02:45;14.80;99.90
2100;DHT22;1055;48.854;9.302;2023-08-06T12:07:40;14.70;99.90
2100;DHT22;1055;48.854;9.302;2023-08-06T12:10:06;14.60;99.90
2100;DHT22;1055;48.854;9.302;2023-08-06T12:12:31;14.40;99.90
2100;DHT22;1055;48.854;9.302;2023-08-06T12:14:57;14.30;99.90
2100;DHT22;1055;48.854;9.302;2023-08-06T12:17:24;14.20;99.90
2100;DHT22;1055;48.854;9.302;2023-08-06T12:19:49;14.20;99.90
2100;DHT22;1055;48.854;9.302;2023-08-06T12:22:16;14.10;99.90
2100;DHT22;1055;48.854;9.302;2023-08-06T12:24:45;14.10;99.90
2100;DHT22;1055;48.854;9.302;2023-08-06T12:27:11;14.00;99.90
2100;DHT22;1055;48.854;9.302;2023-08-06T12:29:40;14.00;99.90
2100;DHT22;1055;48.854;9.302;2023-08-06T12:32:07;14.00;99.90
2100;DHT22;1055;48.854;9.302;2023-08-06T12:34:32;13.80;99.90
2100;DHT22;1055;48.854;9.302;2023-08-06T12:36:58;13.80;99.90
2100;DHT22;1055;48.854;9.302;2023-08-06T12:39:23;13.90;99.90
2100;DHT22;1055;48.854;9.302;2023-08-06T12:41:49;13.90;99.90
2100;DHT22;1055;48.854;9.302;2023-08-06T12:44:15;13.90;99.90
2100;DHT22;1055;48.854;9.302;2023-08-06T12:46:41;14.00;99.90
2100;DHT22;1055;48.854;9.302;2023-08-06T12:49:06;14.00;99.90
2100;DHT22;1055;48.854;9.302;2023-08-06T12:51:32;14.10;99.90
2100;DHT22;1055;48.854;9.302;2023-08-06T12:54:00;14.20;99.90
2100;DHT22;1055;48.854;9.302;2023-08-06T12:56:26;14.30;99.90
2100;DHT22;1055;48.854;9.302;2023-08-06T12:58:51;14.30;99.90
2100;DHT22;1055;48.854;9.302;2023-08-06T13:01:17;14.40;99.90
2100;DHT22;1055;48.854;9.302;2023-08-06T13:03:42;14.50;99.90
2100;DHT22;1055;48.854;9.302;2023-08-06T13:06:08;14.70;99.90
2100;DHT22;1055;48.854;9.302;2023-08-06T13:08:35;14.60;99.90
2100;DHT22;1055;48.854;9.302;2023-08-06T13:11:01;14.70;99.90
2100;DHT22;1055;48.854;9.302;2023-08-06T13:13:26;14.80;99.90
2100;DHT22;1055;48.854;9.302;2023-08-06T13:15:52;14.90;99.90
2100;DHT22;1055;48.854;9.302;2023-08-06T13:18:18;14.90;99.90
2100;DHT22;1055;48.854;9.302;2023-08-06T13:20:44;15.10;99.90
2100;DHT22;1055;48.854;9.302;2023-08-06T13:23:09;15.00;99.90
2100;DHT22;1055;48.854;9.302;2023-08-06T13:25:35;15.10;99.90
2100;DHT22;1055;48.854;9.302;2023-08-06T13:28:03;15.10;99.90
2100;DHT22;1055;48.854;9.302;2023-08-06T13:30:29;15.20;99.90
2100;DHT22;1055;48.854;9.302;2023-08-06T13:32:55;15.30;99.90
2100;DHT22;1055;48.854;9.302;2023-08-06T13:35:25;15.40;99.90
2100;DHT22;1055;48.854;9.302;2023-08-06T13:37:50;15.40;99.90
2100;DHT22;1055;48.854;9.302;2023-08-06T13:40:16;15.50;99.90
2100;DHT22;1055;48.854;9.302;2023-08-06T13:42:41;15.50;99.90
2100;DHT22;1055;48.854;9.302;2023-08-06T13:45:07;15.50;99.90
2100;DHT22;1055;48.854;9.302;2023-08-06T13:47:33;15.50;99.90
2100;DHT22;1055;48.854;9.302;2023-08-06T13:49:59;15.50;99.90
2100;DHT22;1055;48.854;9.302;2023-08-06T13:52:27;15.60;99.90
2100;DHT22;1055;48.854;9.302;2023-08-06T13:54:53;15.50;99.90
2100;DHT22;1055;48.854;9.302;2023-08-06T13:57:18;15.50;99.90
2100;DHT22;1055;48.854;9.302;2023-08-06T13:59:44;15.60;99.90
2100;DHT22;1055;48.854;9.302;2023-08-06T14:02:10;15.50;99.90
2100;DHT22;1055;48.854;9.302;2023-08-06T14:04:37;15.50;99.90
2100;DHT22;1055;48.854;9.302;2023-08-06T14:07:04;15.50;99.90
2100;DHT22;1055;48.854;9.302;2023-08-06T14:09:30;15.50;99.90
2100;DHT22;1055;48.854;9.302;2023-08-06T14:11:55;15.50;99.90
2100;DHT22;1055;48.854;9.302;2023-08-06T14:14:22;15.50;99.90
2100;DHT22;1055;48.854;9.302;2023-08-06T14:16:52;15.50;99.90
2100;DHT22;1055;48.854;9.302;2023-08-06T14:19:18;15.50;99.90
2100;DHT22;1055;48.854;9.302;2023-08-06T14:21:44;15.30;99.90
2100;DHT22;1055;48.854;9.302;2023-08-06T14:24:10;15.10;99.90
2100;DHT22;1055;48.854;9.302;2023-08-06T14:26:35;15.00;99.90
2100;DHT22;1055;48.854;9.302;2023-08-06T14:29:01;14.90;99.90
2100;DHT22;1055;48.854;9.302;2023-08-06T14:31:27;14.90;99.90
2100;DHT22;1055;48.854;9.302;2023-08-06T14:33:52;14.70;99.90
2100;DHT22;1055;48.854;9.302;2023-08-06T14:36:19;14.60;99.90
2100;DHT22;1055;48.854;9.302;2023-08-06T14:38:44;14.70;99.90
2100;DHT22;1055;48.854;9.302;2023-08-06T14:41:10;14.80;99.90
2100;DHT22;1055;48.854;9.302;2023-08-06T14:43:36;14.90;99.90
2100;DHT22;1055;48.854;9.302;2023-08-06T14:46:02;15.00;99.90
2100;DHT22;1055;48.854;9.302;2023-08-06T14:48:30;15.00;99.90
2100;DHT22;1055;48.854;9.302;2023-08-06T14:50:56;15.20;99.90
2100;DHT22;1055;48.854;9.302;2023-08-06T14:53:22;15.20;99.90
2100;DHT22;1055;48.854;9.302;2023-08-06T14:55:48;15.30;99.90
2100;DHT22;1055;48.854;9.302;2023-08-06T14:58:14;15.30;99.90
2100;DHT22;1055;48.854;9.302;2023-08-06T15:00:40;15.30;99.90
2100;DHT22;1055;48.854;9.302;2023-08-06T15:03:05;15.30;99.90
2100;DHT22;1055;48.854;9.302;2023-08-06T15:05:31;15.40;99.90
2100;DHT22;1055;48.854;9.302;2023-08-06T15:07:56;15.40;99.90
2100;DHT22;1055;48.854;9.302;2023-08-06T15:10:22;15.60;99.90
2100;DHT22;1055;48.854;9.302;2023-08-06T15:12:48;15.50;99.90
2100;DHT22;1055;48.854;9.302;2023-08-06T15:15:14;15.60;99.90
2100;DHT22;1055;48.854;9.302;2023-08-06T15:17:42;15.60;99.90
2100;DHT22;1055;48.854;9.302;2023-08-06T15:20:08;15.40;99.90
2100;DHT22;1055;48.854;9.302;2023-08-06T15:22:35;15.30;99.90
2100;DHT22;1055;48.854;9.302;2023-08-06T15:25:01;15.20;99.90
2100;DHT22;1055;48.854;9.302;2023-08-06T15:27:27;15.10;99.90
2100;DHT22;1055;48.854;9.302;2023-08-06T15:29:53;15.10;99.90
2100;DHT22;1055;48.854;9.302;2023-08-06T15:32:18;15.00;99.90
2100;DHT22;1055;48.854;9.302;2023-08-06T15:34:44;14.90;99.90
2100;DHT22;1055;48.854;9.302;2023-08-06T15:37:10;15.00;99.90
2100;DHT22;1055;48.854;9.302;2023-08-06T15:39:37;15.10;99.90
2100;DHT22;1055;48.854;9.302;2023-08-06T15:42:03;15.10;99.90
2100;DHT22;1055;48.854;9.302;2023-08-06T15:44:32;15.20;99.90
2100;DHT22;1055;48.854;9.302;2023-08-06T15:46:57;15.30;99.90
2100;DHT22;1055;48.854;9.302;2023-08-06T15:49:23;15.30;99.90
2100;DHT22;1055;48.854;9.302;2023-08-06T15:51:49;15.40;99.90
2100;DHT22;1055;48.854;9.302;2023-08-06T15:54:15;15.50;99.90
2100;DHT22;1055;48.854;9.302;2023-08-06T15:56:41;15.50;99.90
2100;DHT22;1055;48.854;9.302;2023-08-06T15:59:22;15.50;99.90
2100;DHT22;1055;48.854;9.302;2023-08-06T16:01:48;15.40;99.90
2100;DHT22;1055;48.854;9.302;2023-08-06T16:04:14;15.50;99.90